sensor_id;sensor_type;location;lat;lon;timestamp;pressure;altitude;pressure_sealevel;temperature;humidity
37648;BME280;23490;53.656;10.076;2023-02-05T00:02:12;99985.97;;;-145.95;100.00
37648;BME280;23490;53.656;10.076;2023-02-05T00:04:38;99946.75;;;-145.95;100.00
37648;BME280;23490;53.656;10.076;2023-02-05T00:07:03;99961.19;;;-145.95;100.00
37648;BME280;23490;53.656;10.076;2023-02-05T00:09:28;99967.41;;;-145.95;100.00
37648;BME280;23490;53.656;10.076;2023-02-05T00:11:54;99983.91;;;-145.95;99.44
37648;BME280;23490;53.656;10.076;2023-02-05T00:14:20;99983.91;;;-145.95;99.97
37648;BME280;23490;53.656;10.076;2023-02-05T00:16:46;99928.16;;;-145.95;100.00
37648;BME280;23490;53.656;10.076;2023-02-05T00:19:11;99979.78;;;-145.95;100.00
37648;BME280;23490;53.656;10.076;2023-02-05T00:21:37;99988.06;;;-145.95;99.98
37648;BME280;23490;53.656;10.076;2023-02-05T00:24:02;99967.41;;;-145.95;100.00
37648;BME280;23490;53.656;10.076;2023-02-05T00:26:28;99990.13;;;-145.95;99.28
37648;BME280;23490;53.656;10.076;2023-02-05T00:28:53;99992.19;;;-145.95;99.38
37648;BME280;23490;53.656;10.076;2023-02-05T00:31:20;99979.78;;;-145.95;99.60
37648;BME280;23490;53.656;10.076;2023-02-05T00:33:46;100004.56;;;-145.95;99.15
37648;BME280;23490;53.656;10.076;2023-02-05T00:36:12;99992.19;;;-145.95;99.56
37648;BME280;23490;53.656;10.076;2023-02-05T00:38:38;99955.00;;;-145.95;99.08
37648;BME280;23490;53.656;10.076;2023-02-05T00:41:03;99934.34;;;-145.95;99.68
37648;BME280;23490;53.656;10.076;2023-02-05T00:43:29;99967.41;;;-145.95;99.47
37648;BME280;23490;53.656;10.076;2023-02-05T00:45:55;99996.31;;;-145.95;99.45
37648;BME280;23490;53.656;10.076;2023-02-05T00:48:20;99955.00;;;-145.95;99.35
37648;BME280;23490;53.656;10.076;2023-02-05T00:50:50;99950.88;;;-145.95;98.80
37648;BME280;23490;53.656;10.076;2023-02-05T00:53:15;99971.53;;;-145.95;98.79
37648;BME280;23490;53.656;10.076;2023-02-05T00:55:41;99967.41;;;-145.95;98.52
37648;BME280;23490;53.656;10.076;2023-02-05T00:58:06;99950.88;;;-145.95;98.25
37648;BME280;23490;53.656;10.076;2023-02-05T01:00:31;99996.31;;;-145.95;98.51
37648;BME280;23490;53.656;10.076;2023-02-05T01:02:58;99998.38;;;-145.95;98.84
37648;BME280;23490;53.656;10.076;2023-02-05T01:05:24;99988.06;;;-145.95;98.55
37648;BME280;23490;53.656;10.076;2023-02-05T01:07:49;99975.66;;;-145.95;97.70
37648;BME280;23490;53.656;10.076;2023-02-05T01:10:15;99963.25;;;-145.95;98.14
37648;BME280;23490;53.656;10.076;2023-02-05T01:12:40;100006.63;;;-145.95;97.93
37648;BME280;23490;53.656;10.076;2023-02-05T01:15:06;99955.00;;;-145.95;97.57
37648;BME280;23490;53.656;10.076;2023-02-05T01:17:32;99979.78;;;-145.95;97.83
37648;BME280;23490;53.656;10.076;2023-02-05T01:19:57;99996.31;;;-145.95;97.67
37648;BME280;23490;53.656;10.076;2023-02-05T01:22:23;99992.19;;;-145.95;97.70
37648;BME280;23490;53.656;10.076;2023-02-05T01:24:48;99967.41;;;-145.95;97.28
37648;BME280;23490;53.656;10.076;2023-02-05T01:27:13;100000.44;;;-145.95;97.00
37648;BME280;23490;53.656;10.076;2023-02-05T01:29:39;99988.06;;;-145.95;97.72
37648;BME280;23490;53.656;10.076;2023-02-05T01:32:04;99977.72;;;-145.95;97.37
37648;BME280;23490;53.656;10.076;2023-02-05T01:34:30;99992.19;;;-145.95;96.54
37648;BME280;23490;53.656;10.076;2023-02-05T01:36:55;99934.34;;;-145.95;96.36
37648;BME280;23490;53.656;10.076;2023-02-05T01:39:20;100004.56;;;-145.95;95.89
37648;BME280;23490;53.656;10.076;2023-02-05T01:41:46;99996.31;;;-145.95;96.19
37648;BME280;23490;53.656;10.076;2023-02-05T01:44:21;99936.41;;;-145.95;95.64
37648;BME280;23490;53.656;10.076;2023-02-05T01:46:52;99971.53;;;-145.95;96.24
37648;BME280;23490;53.656;10.076;2023-02-05T01:49:25;99967.41;;;-145.95;95.55
37648;BME280;23490;53.656;10.076;2023-02-05T01:51:53;99967.41;;;-145.95;94.79
37648;BME280;23490;53.656;10.076;2023-02-05T01:54:22;99963.25;;;-145.95;94.63
37648;BME280;23490;53.656;10.076;2023-02-05T01:56:56;99990.13;;;-145.95;94.59
37648;BME280;23490;53.656;10.076;2023-02-05T01:59:27;99942.59;;;-145.95;95.04
37648;BME280;23490;53.656;10.076;2023-02-05T02:01:54;99959.13;;;-145.95;94.74
37648;BME280;23490;53.656;10.076;2023-02-05T02:04:51;99988.06;;;-145.95;94.23
37648;BME280;23490;53.656;10.076;2023-02-05T02:07:20;99998.38;;;-145.95;94.55
37648;BME280;23490;53.656;10.076;2023-02-05T02:09:47;99963.25;;;-145.95;94.75
37648;BME280;23490;53.656;10.076;2023-02-05T02:12:17;100006.63;;;-145.95;94.00
37648;BME280;23490;53.656;10.076;2023-02-05T02:14:48;99963.25;;;-145.95;93.88
37648;BME280;23490;53.656;10.076;2023-02-05T02:17:15;99930.22;;;-145.95;93.78
37648;BME280;23490;53.656;10.076;2023-02-05T02:19:55;99967.41;;;-145.95;93.38
37648;BME280;23490;53.656;10.076;2023-02-05T02:28:28;99942.59;;;-145.95;93.56
37648;BME280;23490;53.656;10.076;2023-02-05T02:31:09;99996.31;;;-145.95;92.39
37648;BME280;23490;53.656;10.076;2023-02-05T02:33:50;99955.00;;;-145.95;91.53
37648;BME280;23490;53.656;10.076;2023-02-05T02:36:29;100012.84;;;-145.95;91.45
37648;BME280;23490;53.656;10.076;2023-02-05T02:39:02;99985.97;;;-145.95;90.97
37648;BME280;23490;53.656;10.076;2023-02-05T02:41:36;99942.59;;;-145.95;90.74
37648;BME280;23490;53.656;10.076;2023-02-05T02:44:15;99963.25;;;-145.95;90.52
37648;BME280;23490;53.656;10.076;2023-02-05T02:46:47;99955.00;;;-145.95;90.92
37648;BME280;23490;53.656;10.076;2023-02-05T02:49:23;99944.69;;;-145.95;91.14
37648;BME280;23490;53.656;10.076;2023-02-05T02:51:52;99979.78;;;-145.95;92.15
37648;BME280;23490;53.656;10.076;2023-02-05T02:54:20;99963.25;;;-145.95;91.03
37648;BME280;23490;53.656;10.076;2023-02-05T02:56:48;99950.88;;;-145.95;90.79
37648;BME280;23490;53.656;10.076;2023-02-05T02:59:20;99955.00;;;-145.95;91.04
37648;BME280;23490;53.656;10.076;2023-02-05T03:01:49;99948.81;;;-145.95;90.81
37648;BME280;23490;53.656;10.076;2023-02-05T03:04:20;99979.78;;;-145.95;91.23
37648;BME280;23490;53.656;10.076;2023-02-05T03:06:49;99905.44;;;-145.95;91.15
37648;BME280;23490;53.656;10.076;2023-02-05T03:09:30;99979.78;;;-145.95;91.72
37648;BME280;23490;53.656;10.076;2023-02-05T03:11:56;99938.47;;;-145.95;91.36
37648;BME280;23490;53.656;10.076;2023-02-05T03:14:22;99936.41;;;-145.95;90.63
37648;BME280;23490;53.656;10.076;2023-02-05T03:16:47;99961.19;;;-145.95;91.26
37648;BME280;23490;53.656;10.076;2023-02-05T03:19:13;99950.88;;;-145.95;91.49
37648;BME280;23490;53.656;10.076;2023-02-05T03:21:41;99909.56;;;-145.95;90.54
37648;BME280;23490;53.656;10.076;2023-02-05T03:24:07;99983.91;;;-145.95;91.01
37648;BME280;23490;53.656;10.076;2023-02-05T03:26:34;99959.13;;;-145.95;90.61
37648;BME280;23490;53.656;10.076;2023-02-05T03:29:07;99955.00;;;-145.95;90.68
37648;BME280;23490;53.656;10.076;2023-02-05T03:31:54;99963.25;;;-145.95;91.22
37648;BME280;23490;53.656;10.076;2023-02-05T03:34:46;99955.00;;;-145.95;91.38
37648;BME280;23490;53.656;10.076;2023-02-05T03:40:11;99940.53;;;-145.95;91.60
37648;BME280;23490;53.656;10.076;2023-02-05T03:45:18;99963.25;;;-145.95;92.50
37648;BME280;23490;53.656;10.076;2023-02-05T03:51:31;99983.91;;;-145.95;91.59
37648;BME280;23490;53.656;10.076;2023-02-05T03:57:51;99971.53;;;-145.95;92.11
37648;BME280;23490;53.656;10.076;2023-02-05T04:07:18;99963.25;;;-145.95;92.62
37648;BME280;23490;53.656;10.076;2023-02-05T04:09:43;99971.53;;;-145.95;92.32
37648;BME280;23490;53.656;10.076;2023-02-05T04:12:09;99957.06;;;-145.95;92.80
37648;BME280;23490;53.656;10.076;2023-02-05T04:14:34;99971.53;;;-145.95;92.45
37648;BME280;23490;53.656;10.076;2023-02-05T04:17:00;99955.00;;;-145.95;92.14
37648;BME280;23490;53.656;10.076;2023-02-05T04:19:25;99959.13;;;-145.95;92.75
37648;BME280;23490;53.656;10.076;2023-02-05T04:21:50;99988.06;;;-145.95;92.80
37648;BME280;23490;53.656;10.076;2023-02-05T04:24:15;99983.91;;;-145.95;91.84
37648;BME280;23490;53.656;10.076;2023-02-05T04:26:41;99979.78;;;-145.95;92.30
37648;BME280;23490;53.656;10.076;2023-02-05T04:29:06;99950.88;;;-145.95;92.20
37648;BME280;23490;53.656;10.076;2023-02-05T04:31:31;99979.78;;;-145.95;92.73
37648;BME280;23490;53.656;10.076;2023-02-05T04:33:57;99975.66;;;-145.95;92.25
37648;BME280;23490;53.656;10.076;2023-02-05T04:36:22;99965.34;;;-145.95;93.16
37648;BME280;23490;53.656;10.076;2023-02-05T04:38:48;99957.06;;;-145.95;92.36
37648;BME280;23490;53.656;10.076;2023-02-05T04:41:13;99975.66;;;-145.95;92.64
37648;BME280;23490;53.656;10.076;2023-02-05T04:43:38;99934.34;;;-145.95;92.68
37648;BME280;23490;53.656;10.076;2023-02-05T04:46:05;99963.25;;;-145.95;93.04
37648;BME280;23490;53.656;10.076;2023-02-05T04:48:31;99967.41;;;-145.95;92.37
37648;BME280;23490;53.656;10.076;2023-02-05T04:50:56;99992.19;;;-145.95;92.36
37648;BME280;23490;53.656;10.076;2023-02-05T04:53:21;99965.34;;;-145.95;92.62
37648;BME280;23490;53.656;10.076;2023-02-05T04:55:47;99963.25;;;-145.95;92.25
37648;BME280;23490;53.656;10.076;2023-02-05T04:58:12;99942.59;;;-145.95;91.99
37648;BME280;23490;53.656;10.076;2023-02-05T05:00:37;99963.25;;;-145.95;91.90
37648;BME280;23490;53.656;10.076;2023-02-05T05:03:03;99938.47;;;-145.95;91.95
37648;BME280;23490;53.656;10.076;2023-02-05T05:05:28;99955.00;;;-145.95;91.90
37648;BME280;23490;53.656;10.076;2023-02-05T05:07:53;99946.75;;;-145.95;91.79
37648;BME280;23490;53.656;10.076;2023-02-05T05:10:18;99924.03;;;-145.95;92.16
37648;BME280;23490;53.656;10.076;2023-02-05T05:12:44;99934.34;;;-145.95;91.85
37648;BME280;23490;53.656;10.076;2023-02-05T05:15:09;99946.75;;;-145.95;92.40
37648;BME280;23490;53.656;10.076;2023-02-05T05:17:35;99967.41;;;-145.95;91.42
37648;BME280;23490;53.656;10.076;2023-02-05T05:20:00;99948.81;;;-145.95;92.48
37648;BME280;23490;53.656;10.076;2023-02-05T05:22:26;100002.50;;;-145.95;91.60
37648;BME280;23490;53.656;10.076;2023-02-05T05:24:51;99907.50;;;-145.95;91.47
37648;BME280;23490;53.656;10.076;2023-02-05T05:27:16;99992.19;;;-145.95;91.42
37648;BME280;23490;53.656;10.076;2023-02-05T05:29:43;99942.59;;;-145.95;91.58
37648;BME280;23490;53.656;10.076;2023-02-05T05:32:11;99996.31;;;-145.95;91.68
37648;BME280;23490;53.656;10.076;2023-02-05T05:34:36;99963.25;;;-145.95;91.70
37648;BME280;23490;53.656;10.076;2023-02-05T05:37:02;99967.41;;;-145.95;90.97
37648;BME280;23490;53.656;10.076;2023-02-05T05:39:27;99924.03;;;-145.95;91.02
37648;BME280;23490;53.656;10.076;2023-02-05T05:42:11;99930.22;;;-145.95;91.25
37648;BME280;23490;53.656;10.076;2023-02-05T05:44:55;99983.91;;;-145.95;91.45
37648;BME280;23490;53.656;10.076;2023-02-05T05:47:20;99948.81;;;-145.95;91.71
37648;BME280;23490;53.656;10.076;2023-02-05T05:49:46;99967.41;;;-145.95;91.42
37648;BME280;23490;53.656;10.076;2023-02-05T05:52:12;99930.22;;;-145.95;91.01
37648;BME280;23490;53.656;10.076;2023-02-05T05:54:37;99963.25;;;-145.95;90.77
37648;BME280;23490;53.656;10.076;2023-02-05T05:57:03;99950.88;;;-145.95;91.04
37648;BME280;23490;53.656;10.076;2023-02-05T05:59:29;99950.88;;;-145.95;90.95
37648;BME280;23490;53.656;10.076;2023-02-05T06:01:54;99955.00;;;-145.95;91.22
37648;BME280;23490;53.656;10.076;2023-02-05T06:04:19;99967.41;;;-145.95;91.28
37648;BME280;23490;53.656;10.076;2023-02-05T06:06:45;99955.00;;;-145.95;91.29
37648;BME280;23490;53.656;10.076;2023-02-05T06:09:11;99940.53;;;-145.95;90.98
37648;BME280;23490;53.656;10.076;2023-02-05T06:11:37;99938.47;;;-145.95;90.56
37648;BME280;23490;53.656;10.076;2023-02-05T06:14:02;99938.47;;;-145.95;91.23
37648;BME280;23490;53.656;10.076;2023-02-05T06:16:28;99955.00;;;-145.95;90.69
37648;BME280;23490;53.656;10.076;2023-02-05T06:18:54;99988.06;;;-145.95;91.62
37648;BME280;23490;53.656;10.076;2023-02-05T06:21:19;99955.00;;;-145.95;91.58
37648;BME280;23490;53.656;10.076;2023-02-05T06:23:44;99926.09;;;-145.95;91.52
37648;BME280;23490;53.656;10.076;2023-02-05T06:26:10;99938.47;;;-145.95;91.68
37648;BME280;23490;53.656;10.076;2023-02-05T06:28:35;99942.59;;;-145.95;91.68
37648;BME280;23490;53.656;10.076;2023-02-05T06:31:01;99950.88;;;-145.95;91.16
37648;BME280;23490;53.656;10.076;2023-02-05T06:33:26;99955.00;;;-145.95;90.72
37648;BME280;23490;53.656;10.076;2023-02-05T06:35:52;99957.06;;;-145.95;91.02
37648;BME280;23490;53.656;10.076;2023-02-05T06:38:17;99917.81;;;-145.95;91.32
37648;BME280;23490;53.656;10.076;2023-02-05T06:40:42;99959.13;;;-145.95;90.93
37648;BME280;23490;53.656;10.076;2023-02-05T06:43:07;99967.41;;;-145.95;90.97
37648;BME280;23490;53.656;10.076;2023-02-05T06:45:33;99985.97;;;-145.95;90.89
37648;BME280;23490;53.656;10.076;2023-02-05T06:47:58;99901.31;;;-145.95;90.39
37648;BME280;23490;53.656;10.076;2023-02-05T06:50:24;99942.59;;;-145.95;90.82
37648;BME280;23490;53.656;10.076;2023-02-05T06:52:50;99967.41;;;-145.95;90.37
37648;BME280;23490;53.656;10.076;2023-02-05T06:55:16;99948.81;;;-145.95;90.46
37648;BME280;23490;53.656;10.076;2023-02-05T06:57:41;99903.38;;;-145.95;90.06
37648;BME280;23490;53.656;10.076;2023-02-05T07:00:08;99967.41;;;-145.95;90.40
37648;BME280;23490;53.656;10.076;2023-02-05T07:02:33;99955.00;;;-145.95;90.22
37648;BME280;23490;53.656;10.076;2023-02-05T07:04:59;99957.06;;;-145.95;89.96
37648;BME280;23490;53.656;10.076;2023-02-05T07:07:24;99946.75;;;-145.95;90.05
37648;BME280;23490;53.656;10.076;2023-02-05T07:09:49;99946.75;;;-145.95;90.05
37648;BME280;23490;53.656;10.076;2023-02-05T07:12:15;99934.34;;;-145.95;89.84
37648;BME280;23490;53.656;10.076;2023-02-05T07:14:41;99917.81;;;-145.95;90.39
37648;BME280;23490;53.656;10.076;2023-02-05T07:17:07;99934.34;;;-145.95;90.97
37648;BME280;23490;53.656;10.076;2023-02-05T07:19:33;99919.88;;;-145.95;90.14
37648;BME280;23490;53.656;10.076;2023-02-05T07:21:58;99961.19;;;-145.95;90.37
37648;BME280;23490;53.656;10.076;2023-02-05T07:24:23;99934.34;;;-145.95;90.17
37648;BME280;23490;53.656;10.076;2023-02-05T07:26:49;99959.13;;;-145.95;90.09
37648;BME280;23490;53.656;10.076;2023-02-05T07:29:14;99917.81;;;-145.95;90.44
37648;BME280;23490;53.656;10.076;2023-02-05T07:31:39;99917.81;;;-145.95;90.47
37648;BME280;23490;53.656;10.076;2023-02-05T07:34:05;99946.75;;;-145.95;90.18
37648;BME280;23490;53.656;10.076;2023-02-05T07:36:30;99897.16;;;-145.95;89.49
37648;BME280;23490;53.656;10.076;2023-02-05T07:38:56;99938.47;;;-145.95;89.86
37648;BME280;23490;53.656;10.076;2023-02-05T07:41:22;99955.00;;;-145.95;89.53
37648;BME280;23490;53.656;10.076;2023-02-05T07:43:51;99928.16;;;-145.95;89.76
37648;BME280;23490;53.656;10.076;2023-02-05T07:46:18;99909.56;;;-145.95;89.76
37648;BME280;23490;53.656;10.076;2023-02-05T07:48:43;99930.22;;;-145.95;89.19
37648;BME280;23490;53.656;10.076;2023-02-05T07:51:15;99917.81;;;-145.95;89.76
37648;BME280;23490;53.656;10.076;2023-02-05T07:53:41;99917.81;;;-145.95;89.74
37648;BME280;23490;53.656;10.076;2023-02-05T07:56:06;99921.94;;;-145.95;89.84
37648;BME280;23490;53.656;10.076;2023-02-05T07:58:31;99913.69;;;-145.95;89.36
37648;BME280;23490;53.656;10.076;2023-02-05T08:01:01;99944.69;;;-145.95;89.53
37648;BME280;23490;53.656;10.076;2023-02-05T08:03:26;99934.34;;;-145.95;89.45
37648;BME280;23490;53.656;10.076;2023-02-05T08:05:52;99917.81;;;-145.95;89.21
37648;BME280;23490;53.656;10.076;2023-02-05T08:08:17;99930.22;;;-145.95;88.79
37648;BME280;23490;53.656;10.076;2023-02-05T08:10:43;99901.31;;;-145.95;88.28
37648;BME280;23490;53.656;10.076;2023-02-05T08:13:08;99921.94;;;-145.95;88.88
37648;BME280;23490;53.656;10.076;2023-02-05T08:15:33;99901.31;;;-145.95;88.79
37648;BME280;23490;53.656;10.076;2023-02-05T08:17:59;99932.28;;;-145.95;88.50
37648;BME280;23490;53.656;10.076;2023-02-05T08:20:25;99919.88;;;-145.95;89.20
37648;BME280;23490;53.656;10.076;2023-02-05T08:22:51;99938.47;;;-145.95;89.06
37648;BME280;23490;53.656;10.076;2023-02-05T08:25:16;99903.38;;;-145.95;88.84
37648;BME280;23490;53.656;10.076;2023-02-05T08:27:42;99901.31;;;-145.95;88.56
37648;BME280;23490;53.656;10.076;2023-02-05T08:30:11;99901.31;;;-145.95;88.12
37648;BME280;23490;53.656;10.076;2023-02-05T08:32:37;99895.09;;;-145.95;88.89
37648;BME280;23490;53.656;10.076;2023-02-05T08:35:02;99901.31;;;-145.95;88.65
37648;BME280;23490;53.656;10.076;2023-02-05T08:37:28;99913.69;;;-145.95;88.18
37648;BME280;23490;53.656;10.076;2023-02-05T08:39:53;99907.50;;;-145.95;87.59
37648;BME280;23490;53.656;10.076;2023-02-05T08:42:18;99905.44;;;-145.95;87.43
37648;BME280;23490;53.656;10.076;2023-02-05T08:44:44;99913.69;;;-145.95;87.60
37648;BME280;23490;53.656;10.076;2023-02-05T08:47:09;99893.03;;;-145.95;86.71
37648;BME280;23490;53.656;10.076;2023-02-05T08:49:34;99888.91;;;-145.95;87.05
37648;BME280;23490;53.656;10.076;2023-02-05T08:52:00;99878.56;;;-145.95;87.56
37648;BME280;23490;53.656;10.076;2023-02-05T08:54:25;99893.03;;;-145.95;86.70
37648;BME280;23490;53.656;10.076;2023-02-05T08:56:51;99851.72;;;-145.95;86.10
37648;BME280;23490;53.656;10.076;2023-02-05T08:59:17;99884.78;;;-145.95;86.22
37648;BME280;23490;53.656;10.076;2023-02-05T09:01:43;99886.84;;;-145.95;86.34
37648;BME280;23490;53.656;10.076;2023-02-05T09:04:14;99868.25;;;-145.95;86.35
37648;BME280;23490;53.656;10.076;2023-02-05T09:06:40;99868.25;;;-145.95;86.09
37648;BME280;23490;53.656;10.076;2023-02-05T09:09:05;99870.31;;;-145.95;85.96
37648;BME280;23490;53.656;10.076;2023-02-05T09:11:31;99860.00;;;-145.95;86.34
37648;BME280;23490;53.656;10.076;2023-02-05T09:13:56;99868.25;;;-145.95;85.80
37648;BME280;23490;53.656;10.076;2023-02-05T09:16:23;99880.66;;;-145.95;86.39
37648;BME280;23490;53.656;10.076;2023-02-05T09:18:48;99843.47;;;-145.95;85.72
37648;BME280;23490;53.656;10.076;2023-02-05T09:21:14;99880.66;;;-145.95;85.98
37648;BME280;23490;53.656;10.076;2023-02-05T09:23:39;99884.78;;;-145.95;86.17
37648;BME280;23490;53.656;10.076;2023-02-05T09:26:05;99884.78;;;-145.95;85.42
37648;BME280;23490;53.656;10.076;2023-02-05T09:28:31;99851.72;;;-145.95;84.98
37648;BME280;23490;53.656;10.076;2023-02-05T09:30:56;99810.41;;;-145.95;84.36
37648;BME280;23490;53.656;10.076;2023-02-05T09:33:22;99822.81;;;-145.95;84.69
37648;BME280;23490;53.656;10.076;2023-02-05T09:35:47;99814.56;;;-145.95;83.75
37648;BME280;23490;53.656;10.076;2023-02-05T09:38:13;99812.47;;;-145.95;84.32
37648;BME280;23490;53.656;10.076;2023-02-05T09:40:53;99831.06;;;-145.95;84.97
37648;BME280;23490;53.656;10.076;2023-02-05T09:43:53;99818.69;;;-145.95;83.18
37648;BME280;23490;53.656;10.076;2023-02-05T09:46:37;99831.06;;;-145.95;82.08
37648;BME280;23490;53.656;10.076;2023-02-05T09:51:54;99835.19;;;-145.95;82.14
37648;BME280;23490;53.656;10.076;2023-02-05T09:54:23;99822.81;;;-145.95;82.67
37648;BME280;23490;53.656;10.076;2023-02-05T09:56:52;99818.69;;;-145.95;83.09
37648;BME280;23490;53.656;10.076;2023-02-05T09:59:21;99818.69;;;-145.95;82.97
37648;BME280;23490;53.656;10.076;2023-02-05T10:02:01;99814.56;;;-145.95;82.23
37648;BME280;23490;53.656;10.076;2023-02-05T10:04:28;99835.19;;;-145.95;81.27
37648;BME280;23490;53.656;10.076;2023-02-05T10:07:22;99822.81;;;-145.95;81.28
37648;BME280;23490;53.656;10.076;2023-02-05T10:10:06;99798.03;;;-145.95;81.65
37648;BME280;23490;53.656;10.076;2023-02-05T10:18:43;99810.41;;;-145.95;80.40
37648;BME280;23490;53.656;10.076;2023-02-05T10:24:27;99816.63;;;-145.95;80.46
37648;BME280;23490;53.656;10.076;2023-02-05T10:30:15;99795.97;;;-145.95;80.73
37648;BME280;23490;53.656;10.076;2023-02-05T10:38:24;99793.91;;;-145.95;79.65
37648;BME280;23490;53.656;10.076;2023-02-05T10:40:54;99793.91;;;-145.95;81.51
37648;BME280;23490;53.656;10.076;2023-02-05T10:43:33;99760.84;;;-145.95;80.75
37648;BME280;23490;53.656;10.076;2023-02-05T10:46:00;99777.38;;;-145.95;79.72
37648;BME280;23490;53.656;10.076;2023-02-05T10:48:45;99789.75;;;-145.95;80.09
37648;BME280;23490;53.656;10.076;2023-02-05T10:51:23;99785.63;;;-145.95;80.43
37648;BME280;23490;53.656;10.076;2023-02-05T10:53:51;99752.59;;;-145.95;79.80
37648;BME280;23490;53.656;10.076;2023-02-05T10:56:18;99744.31;;;-145.95;79.24
37648;BME280;23490;53.656;10.076;2023-02-05T10:58:52;99798.03;;;-145.95;80.28
37648;BME280;23490;53.656;10.076;2023-02-05T11:01:22;99760.84;;;-145.95;79.42
37648;BME280;23490;53.656;10.076;2023-02-05T11:06:24;99764.97;;;-145.95;78.64
37648;BME280;23490;53.656;10.076;2023-02-05T11:08:51;99769.13;;;-145.95;79.21
37648;BME280;23490;53.656;10.076;2023-02-05T11:11:27;99806.28;;;-145.95;78.88
37648;BME280;23490;53.656;10.076;2023-02-05T11:14:03;99727.81;;;-145.95;78.21
37648;BME280;23490;53.656;10.076;2023-02-05T11:16:36;99731.94;;;-145.95;79.05
37648;BME280;23490;53.656;10.076;2023-02-05T11:19:02;99791.81;;;-145.95;78.10
37648;BME280;23490;53.656;10.076;2023-02-05T11:21:51;99746.38;;;-145.95;78.29
37648;BME280;23490;53.656;10.076;2023-02-05T11:24:23;99785.63;;;-145.95;78.28
37648;BME280;23490;53.656;10.076;2023-02-05T11:26:49;99756.72;;;-145.95;79.57
37648;BME280;23490;53.656;10.076;2023-02-05T11:29:18;99826.94;;;-145.95;79.50
37648;BME280;23490;53.656;10.076;2023-02-05T11:31:45;99752.59;;;-145.95;79.04
37648;BME280;23490;53.656;10.076;2023-02-05T11:34:14;99791.81;;;-145.95;79.62
37648;BME280;23490;53.656;10.076;2023-02-05T11:36:51;99793.91;;;-145.95;80.24
37648;BME280;23490;53.656;10.076;2023-02-05T11:39:37;99771.19;;;-145.95;80.64
37648;BME280;23490;53.656;10.076;2023-02-05T11:42:09;99787.69;;;-145.95;79.40
37648;BME280;23490;53.656;10.076;2023-02-05T11:44:46;99773.25;;;-145.95;79.30
37648;BME280;23490;53.656;10.076;2023-02-05T11:47:40;99744.31;;;-145.95;79.56
37648;BME280;23490;53.656;10.076;2023-02-05T11:50:05;99736.06;;;-145.95;80.22
37648;BME280;23490;53.656;10.076;2023-02-05T11:52:43;99740.19;;;-145.95;78.39
37648;BME280;23490;53.656;10.076;2023-02-05T11:55:25;99779.44;;;-145.95;77.76
37648;BME280;23490;53.656;10.076;2023-02-05T11:58:02;99777.38;;;-145.95;77.79
37648;BME280;23490;53.656;10.076;2023-02-05T12:00:28;99777.38;;;-145.95;78.57
37648;BME280;23490;53.656;10.076;2023-02-05T12:03:06;99736.06;;;-145.95;77.89
37648;BME280;23490;53.656;10.076;2023-02-05T12:05:53;99798.03;;;-145.95;77.74
37648;BME280;23490;53.656;10.076;2023-02-05T12:08:24;99703.00;;;-145.95;78.12
37648;BME280;23490;53.656;10.076;2023-02-05T12:11:13;99777.38;;;-145.95;77.68
37648;BME280;23490;53.656;10.076;2023-02-05T12:14:14;99793.91;;;-145.95;77.94
37648;BME280;23490;53.656;10.076;2023-02-05T12:16:56;99727.81;;;-145.95;77.83
37648;BME280;23490;53.656;10.076;2023-02-05T12:19:33;99736.06;;;-145.95;77.48
37648;BME280;23490;53.656;10.076;2023-02-05T12:22:13;99758.78;;;-145.95;77.59
37648;BME280;23490;53.656;10.076;2023-02-05T12:24:43;99740.19;;;-145.95;79.10
37648;BME280;23490;53.656;10.076;2023-02-05T12:30:36;99715.41;;;-145.95;78.33
37648;BME280;23490;53.656;10.076;2023-02-05T12:33:25;99789.75;;;-145.95;78.62
37648;BME280;23490;53.656;10.076;2023-02-05T12:36:18;99756.72;;;-145.95;78.73
37648;BME280;23490;53.656;10.076;2023-02-05T12:39:06;99777.38;;;-145.95;78.79
37648;BME280;23490;53.656;10.076;2023-02-05T12:50:32;99696.81;;;-145.95;79.23
37648;BME280;23490;53.656;10.076;2023-02-05T12:53:12;99727.81;;;-145.95;79.50
37648;BME280;23490;53.656;10.076;2023-02-05T12:58:44;99731.94;;;-145.95;80.07
37648;BME280;23490;53.656;10.076;2023-02-05T13:01:15;99713.34;;;-145.95;78.87
37648;BME280;23490;53.656;10.076;2023-02-05T13:03:47;99744.31;;;-145.95;78.22
37648;BME280;23490;53.656;10.076;2023-02-05T13:06:18;99742.25;;;-145.95;77.59
37648;BME280;23490;53.656;10.076;2023-02-05T13:11:42;99740.19;;;-145.95;78.18
37648;BME280;23490;53.656;10.076;2023-02-05T13:16:39;99738.13;;;-145.95;79.16
37648;BME280;23490;53.656;10.076;2023-02-05T13:19:32;99719.53;;;-145.95;80.70
37648;BME280;23490;53.656;10.076;2023-02-05T13:22:03;99719.53;;;-145.95;78.75
37648;BME280;23490;53.656;10.076;2023-02-05T13:24:53;99682.38;;;-145.95;78.16
37648;BME280;23490;53.656;10.076;2023-02-05T13:27:51;99723.66;;;-145.95;78.90
37648;BME280;23490;53.656;10.076;2023-02-05T13:30:43;99715.41;;;-145.95;78.17
37648;BME280;23490;53.656;10.076;2023-02-05T13:33:10;99682.38;;;-145.95;77.70
37648;BME280;23490;53.656;10.076;2023-02-05T13:36:13;99709.22;;;-145.95;77.24
37648;BME280;23490;53.656;10.076;2023-02-05T13:38:52;99700.94;;;-145.95;77.17
37648;BME280;23490;53.656;10.076;2023-02-05T13:47:36;99653.44;;;-145.95;76.28
37648;BME280;23490;53.656;10.076;2023-02-05T13:53:25;99705.09;;;-145.95;78.57
37648;BME280;23490;53.656;10.076;2023-02-05T13:56:14;99630.72;;;-145.95;76.61
37648;BME280;23490;53.656;10.076;2023-02-05T13:58:48;99665.84;;;-145.95;76.15
37648;BME280;23490;53.656;10.076;2023-02-05T14:01:25;99667.91;;;-145.95;75.54
37648;BME280;23490;53.656;10.076;2023-02-05T14:04:02;99643.13;;;-145.95;75.25